• NOTAM LFMK

     01/04 02:00Z - 01/07/24 01:55Z
    AERONEFS DE CATEGORIE D ET PLUS INERDIT SAUF : - C130 HERCULES - C160 TRANSALL - A400M

     03/04 04:06Z - 01/05/24 01:55Z
    HORAIRE RFFS : LUN 0700-1000 NIVEAU 5 1000-1700 NIVEAU 7 MAR 0700-0715 NIVEAU 5 0715-0930 NIVEAU 7 0930-1330 NIVEAU 5 1330-1745 NIVEAU 7 MER 0630-1430 NIVEAU 7 1430-1600 NIVEAU 5 JEU 0700-1445 NIVEAU 7 1445-1600 NIVEAU 5 VEN 0700-1000 NIVEAU 5 1000-1545 NIVEAU 7 1545-1800 NIVEAU 5 SAM 0700-1230 NIVEAU 5 1230-1530 NIVEAU 7 1530-1600 NIVEAU 5 DIM 0700-1230 NIVEAU 5 1230-1530 NIVEAU 7 1530-1600 NIVEAU 5.

     02/04 02:00Z - 01/07/24 01:55Z
    AVITAILLEMENT : 100LL LIMITE AVEC CARTE BP UNIQUEMENT.

     31/03 01:00Z - 30/04/24 02:00Z
    HORAIRES AVITAILLEMENT -JET A1 : LUNDI 0730-1745 MARDI 0730-1800 MERCREDI 0645-1545 JEUDI 0700-1545 VENDREDI 0730-1645 SAMEDI 0730-1600 DIMANCHE 1030-1545

     02/04 12:08Z - 01/07/24 01:55Z
    PAS D'ANTIGIVRAGE ET DEGIVRAGE POSSIBLE PAR L'EXPLOITANT D'AERODROME

     15/06/23 12:08Z - 12/04/24 11:04Z
    ABSENCE DE PAPI AU QFU 09. REFERENCE AIP FRANCE AD 2 LFMK.AD 2.23.

     01/04 02:00Z - 03/06/24 01:59Z
    HORAIRES ACTIVATION CTR CARCASSONNE : LUN : 0600-1730 MAR : 0600-1800 MER : 0600-1730 JEU : 0600-1730 VEN : 0600-1730 SAM : 0600-1730 DIM : 0600-1730 EN DEHORS DE CES HORAIRES, CTR CARCASSONNE DESACTIVEE, CONTROLE D'AERODROME NON ASSURE.

    NOTAM LFMZ

     18/03 08:00Z - 30/04/24 10:00Z
    CIRCUIT BASSE-HAUTEUR INTERDITE.

     10/03 02:02Z - 10/06/24 01:59Z
    AVGAS 100LL INDISPONIBLE.

     04/03 08:00Z - 31/05/24 07:00Z
    OBST: GRUE MOBILE A 'ZAE CAUMONT' : RDL 090/0.48NM ARP LFMZ PSN : 431030N 0024437E HAUTEUR : 98FT ALTITUDE : 290FT BALISAGE : DAY

     18/03 07:00Z - 30/04/24 07:00Z
    GRUE MOBILE - CHANTIER AD LEZIGNAN-CORBIERES - RDL088/0.47NM ARP LFMZ : - PSN : 431030.8N 0024436.4E - HAUTEUR : 98FT - ALT AU SOMMET : 290FT - BALISAGE : JOUR

     31/03 08:00Z - 30/06/24 08:00Z
    HORAIRES AFIS : 0600-1000, 1200-1530.

    NOTAM LFMW

     10/04 03:21Z - 12/04/24 11:04Z
    AVITAILLEMENTS DISPONIBLES : - MOGAS SP98 DANS CUVE DE 2400L (A LA PLACE DU 100LL). - AVGAS UL91 DANS CUVE DE 15000L. REF AD 2 LFMW TXT 02.

    NOTAM LFCK

     31/03 01:00Z - 01/05/24 01:59Z
    HORAIRES ET NIVEAUX RFFS (NORMES UE) : - PENDANT HORAIRES AFIS : . NIVEAU 2 . NIVEAU 5 SUR PPR 15MIN (CONTACTER AFIS LFCK) SAUF 08 AVR 0530-0730 : NIVEAU 5 NON ASSURE - EN DEHORS DE CES HORAIRES, RFFS NON ASSURE.

     11/04 02:23Z - 01/05/24 01:59Z
    MANCHE A AIR NON CONFORME: INDICATION FORCE DU VENT ERRONNE

     11/04 02:30Z - 01/05/24 01:59Z
    HORAIRES AFIS (RMZ 'CASTRES') : - LUN-VEN : 0400-1945 SAUF 23 APR 0830-1200 : NON ASSURE - SAM DIM : NON ASSURE - EN DEHORS DE CES HORAIRES : OUVERTURE POUR VOLS COMMERCIAUX PROGRAMMES ET MEDEVAC UNIQUEMENT SUR PPR 05HR, TEL : 05 63 70 82 54.

     02/02 11:27Z - 05/09/24 02:00Z
    STAR MEN 2M INUTILISABLE CAUSE PORTEE DME MEN INSUFFISANTE : REF CARTE AD2 LFCK STAR RWY 14 RNAV CONV.

     02/02 11:45Z - 05/09/24 02:00Z
    MOCA DU SEGMENT DE FINALE EN AMONT DU SDF REMONTEE A 1330(627) AU LIEU DE 1250(547). REF CARTE AD2 LFCK IAC RWY14 RNP Y.

    NOTAM LFMP

     30/01 10:23Z - 30/04/24 02:00Z
    ENTRAINEMENTS IFR POUR LES AERONEFS NON BASES SUR LES AD LFMU LFTW LFMP LFMT PPR 48HR OUVREES PAR MAIL: MONTPELLIER-SUBDIVISION-CTL(A)AVIATION-CIVILE.GOUV.FR EN PRECISANT INDICATIF, IMMATRICULATION, TYPE AERONEF, ETA, AD DE PROVENANCE ET DE DESTINATION, NOMBRE DE PROCEDURES

     19/01 10:57Z - 12/04/24 11:04Z
    MOYENS DE SAUVETAGE : 1 VIM 90 P2.5 - 1 VIM 75 P2.5 - 1 VIM 60 P2.5 - 1 VEHICULE DE COMMANDEMENT - POUDRE 250KG REF AD 2 LFMP.6 ET VAC AD 2 LFMP TXT 06

     19/01 11:18Z - 12/04/24 11:04Z
    CARBURANT UL91 INDISPONIBLE REF AIP AD 2 LFMP.4 ET VAC AD 2 LFMP TXT 05

     19/01 10:41Z - 12/04/24 11:04Z
    POUR VOLS EXTRA-SCHENGEN, STATIONNEMENT OBLIGATOIRE SUR AIRE DE TRAFIC COMMERCIALE ET PREAVIS OBLIGATOIRE : - PPR 24HR LUN-VEN - PPR 48HR SAM-DIM ET JF ADRESSER LA DEMANDE PAR E-MAIL EXCLUSIVEMENT, SIMULTANEMENT A : BSI-PERPIGNAN(A)DOUANE.FINANCES.GOUV.FR ET OPERATIONS.PERPIGNAN(A)AEROPORTS-LAREGION.FR REF AD 2 LFMP.3 ET VAC AD 2 LFMP TXT 05

     19/01 11:12Z - 12/04/24 11:04Z
    ROULAGE : TWY Q, T ET V INTERDITS AUX ACFT DONT LA LARGEUR HORS TOUT DU TRAIN D'ATTERRISSAGE EST SUPERIEURE OU EGALE A 4.5M. TWY L INTERDIT AUX ACFT D'ENVERGURE SUPERIEURE OU EGALE A 52M ET/OU A UNE LARGEUR HORS-TOUT DU TRAIN PRINCIPAL SUPERIEURE OU EGALE A 14M. REF VAC AD 2 LFMP TXT 02











  • PHOTOS SATELLITE

CARTE TEMSI

CARTE WINTEM

  • Vent au sol

  • Vent à 2000ft

  • ANIMATION RADAR

  • METAR/TAF LFMK

    LFMK 122100Z AUTO VRB02KT CAVOK 14/09 Q1028

    TAF LFMK 121400Z 1215/1315 27006KT CAVOK

    METAR/TAF LFMP

    LFMP 122100Z AUTO VRB02KT CAVOK 16/07 Q1028 NOSIG

    TAF LFMP 121400Z 1215/1315 08008KT CAVOK BECMG 1217/1219 VRB03KT BECMG 1310/1312 10010KT

    METAR/TAF LFMT

    LFMT 122100Z AUTO 04003KT CAVOK 16/10 Q1028 NOSIG

    TAF LFMT 122000Z 1221/1321 VRB07KT CAVOK

    METAR/TAF LFBO

    LFBO 122100Z AUTO VRB03KT CAVOK 18/08 Q1029 NOSIG

    TAF LFBO 121700Z 1218/1324 VRB03KT CAVOK

RESERVATION

  • COMM' Comité Régional Aéronautique

    SITE WEB DU CRA à JOUR : CONSULTEZ TOUTES LES RUBRIQUES, AGENDAS et AIDES !

    https://cra-occitanie.fr/La SAISON 2024 est LANCEE !!!
    TOUTES LES INFOS UTILES sont sur :
    Le site web du CRA-OCCITANIE : disponible ICI
    https://cra-occitanie.fr/


    AGENDA CRA Occitanie - 2024

    Lancement de l'exercice 2024 : dirigeants des aéroclubs, vous pouvez transmettre vos demandes de remboursement de frais et vos demandes de subventions !
    Contact : tresorier@cra-occitanie.fr

  • COMM' FFA

    Opération « 600 aéroclubs vous ouvrent leurs portes » - Bienvenue à bord de l’édition 2024, à vous les commandes !

    Pour cette nouvelle édition 2024, la FFA propose à ses aéroclubs d’ouvrir leurs portes au public les 18, 19 et 20 mai 2024.